createdAt,value
2022-10-14T00:01:27.026Z,2.03
2022-10-14T00:03:55.835Z,1.70
2022-10-14T00:06:25.896Z,2.33
2022-10-14T00:08:54.915Z,2.40
2022-10-14T00:11:25.663Z,2.70
2022-10-14T00:13:56.094Z,2.00
2022-10-14T00:16:26.120Z,2.47
2022-10-14T00:18:54.208Z,2.20
2022-10-14T00:21:22.203Z,2.10
2022-10-14T00:23:50.699Z,2.13
2022-10-14T00:26:21.258Z,2.33
2022-10-14T00:28:52.418Z,2.67
2022-10-14T00:31:21.628Z,2.60
2022-10-14T00:33:50.435Z,2.37
2022-10-14T00:36:21.016Z,2.50
2022-10-14T00:38:49.741Z,2.23
2022-10-14T00:41:20.607Z,2.07
2022-10-14T00:43:59.273Z,1.87
2022-10-14T00:46:28.664Z,2.23
2022-10-14T00:49:05.803Z,2.40
2022-10-14T00:51:34.366Z,2.53
2022-10-14T00:54:02.432Z,2.50
2022-10-14T00:56:31.136Z,2.50
2022-10-14T00:59:01.216Z,2.50
2022-10-14T01:01:29.575Z,2.63
2022-10-14T01:03:57.795Z,2.70
2022-10-14T01:06:36.257Z,2.93
2022-10-14T01:09:06.138Z,2.47
2022-10-14T01:11:40.670Z,2.20
2022-10-14T01:14:18.678Z,2.53
2022-10-14T01:16:53.045Z,2.27
2022-10-14T01:19:44.741Z,2.30
2022-10-14T01:22:22.174Z,2.33
2022-10-14T01:25:00.327Z,2.50
2022-10-14T01:27:44.025Z,2.37
2022-10-14T01:30:18.618Z,2.10
2022-10-14T01:33:01.221Z,2.10
2022-10-14T01:35:41.122Z,2.07
2022-10-14T01:38:12.974Z,2.13
2022-10-14T01:40:43.749Z,2.20
2022-10-14T01:43:14.306Z,2.00
2022-10-14T01:45:45.154Z,2.40
2022-10-14T01:48:14.954Z,1.90
2022-10-14T01:50:46.411Z,1.90
2022-10-14T01:53:17.885Z,2.00
2022-10-14T01:55:47.840Z,1.70
2022-10-14T01:58:18.099Z,2.10
2022-10-14T02:00:48.796Z,2.13
2022-10-14T02:03:16.803Z,1.63
2022-10-14T02:05:48.423Z,1.90
2022-10-14T02:08:22.234Z,2.13
2022-10-14T02:11:02.705Z,1.93
2022-10-14T02:13:40.687Z,1.87
2022-10-14T02:16:15.843Z,1.90
2022-10-14T02:18:50.190Z,2.00
2022-10-14T02:21:22.387Z,2.00
2022-10-14T02:24:11.977Z,2.00
2022-10-14T02:26:40.664Z,2.23
2022-10-14T02:29:08.871Z,1.60
2022-10-14T02:31:39.643Z,1.77
2022-10-14T02:34:11.242Z,1.50
2022-10-14T02:36:41.756Z,2.00
2022-10-14T02:39:13.204Z,2.03
2022-10-14T02:41:41.748Z,1.90
2022-10-14T02:44:09.747Z,2.00
2022-10-14T02:46:40.079Z,2.00
2022-10-14T02:49:10.559Z,1.97
2022-10-14T02:51:38.885Z,1.73
2022-10-14T02:54:06.927Z,1.50
2022-10-14T02:56:35.479Z,1.80
2022-10-14T02:59:03.480Z,1.93
2022-10-14T03:01:36.554Z,2.07
2022-10-14T03:04:08.321Z,2.00
2022-10-14T03:06:37.255Z,1.73
2022-10-14T03:09:05.741Z,1.50
2022-10-14T03:11:36.984Z,1.87
2022-10-14T03:14:08.455Z,1.90
2022-10-14T03:16:36.517Z,1.67
2022-10-14T03:19:04.792Z,1.60
2022-10-14T03:21:49.109Z,1.73
2022-10-14T03:24:20.712Z,1.80
2022-10-14T03:26:56.954Z,1.53
2022-10-14T03:29:27.089Z,1.60
2022-10-14T03:32:06.719Z,1.53
2022-10-14T03:34:54.672Z,1.20
2022-10-14T03:37:26.772Z,1.50
2022-10-14T03:39:57.351Z,1.57
2022-10-14T03:42:25.897Z,1.80
2022-10-14T03:44:54.005Z,1.43
2022-10-14T03:47:42.212Z,1.73
2022-10-14T03:50:11.419Z,1.30
2022-10-14T03:52:52.145Z,1.57
2022-10-14T03:55:29.901Z,1.33
2022-10-14T03:57:58.372Z,1.50
2022-10-14T04:00:28.069Z,1.20
2022-10-14T04:03:10.961Z,1.73
2022-10-14T04:05:41.422Z,1.30
2022-10-14T04:08:15.388Z,1.10
2022-10-14T04:10:53.333Z,1.10
2022-10-14T04:13:21.776Z,1.40
2022-10-14T04:15:49.894Z,1.60
2022-10-14T04:18:22.283Z,1.73
2022-10-14T04:20:52.326Z,1.70
2022-10-14T04:23:25.195Z,1.40
2022-10-14T04:25:57.629Z,1.20
2022-10-14T04:28:26.433Z,1.30
2022-10-14T04:31:01.250Z,1.43
2022-10-14T04:33:38.434Z,1.53
2022-10-14T04:36:15.639Z,1.87
2022-10-14T04:38:45.034Z,1.33
2022-10-14T04:41:13.176Z,1.87
2022-10-14T04:43:46.949Z,1.90
2022-10-14T04:46:37.592Z,1.70
2022-10-14T04:49:06.092Z,1.57
2022-10-14T04:51:41.463Z,1.50
2022-10-14T04:54:33.605Z,1.50
2022-10-14T04:57:01.976Z,1.73
2022-10-14T04:59:30.739Z,1.50
2022-10-14T05:02:10.842Z,1.83
2022-10-14T05:04:51.304Z,1.10
2022-10-14T05:07:19.468Z,1.37
2022-10-14T05:09:56.697Z,2.07
2022-10-14T05:12:41.101Z,1.50
2022-10-14T05:15:11.015Z,1.70
2022-10-14T05:17:46.223Z,1.33
2022-10-14T05:20:17.432Z,1.70
2022-10-14T05:22:49.193Z,1.63
2022-10-14T05:25:18.736Z,1.27
2022-10-14T05:27:46.867Z,1.53
2022-10-14T05:30:15.239Z,1.37
2022-10-14T05:32:48.004Z,1.50
2022-10-14T05:35:29.260Z,1.60
2022-10-14T05:38:08.218Z,1.80
2022-10-14T05:40:41.856Z,1.80
2022-10-14T05:43:10.162Z,1.80
2022-10-14T05:45:42.175Z,1.67
2022-10-14T05:48:10.181Z,1.60
2022-10-14T05:50:38.152Z,1.60
2022-10-14T05:53:11.556Z,1.50
2022-10-14T05:55:45.242Z,1.40
2022-10-14T05:58:13.599Z,1.93
2022-10-14T06:00:43.994Z,1.90
2022-10-14T06:03:16.791Z,2.00
2022-10-14T06:05:46.318Z,1.90
2022-10-14T06:08:14.330Z,1.80
2022-10-14T06:10:42.465Z,1.80
2022-10-14T06:13:11.848Z,1.60
2022-10-14T06:15:41.531Z,1.80
2022-10-14T06:18:10.037Z,1.50
2022-10-14T06:20:39.195Z,1.73
2022-10-14T06:23:07.226Z,2.30
2022-10-14T06:25:35.167Z,2.10
2022-10-14T06:28:04.193Z,1.80
2022-10-14T06:30:34.128Z,1.97
2022-10-14T06:33:02.086Z,2.00
2022-10-14T06:35:30.003Z,1.60
2022-10-14T06:37:58.620Z,1.90
2022-10-14T06:40:26.596Z,1.47
2022-10-14T06:42:54.629Z,2.03
2022-10-14T06:45:22.627Z,1.87
2022-10-14T06:47:52.257Z,1.67
2022-10-14T06:50:20.703Z,1.63
2022-10-14T06:52:49.195Z,1.60
2022-10-14T06:55:18.085Z,2.37
2022-10-14T06:57:46.391Z,1.70
2022-10-14T07:00:15.372Z,1.80
2022-10-14T07:02:44.292Z,2.00
2022-10-14T07:05:13.752Z,1.60
2022-10-14T07:07:41.868Z,1.60
2022-10-14T07:10:10.755Z,1.60
2022-10-14T07:12:38.820Z,1.50
2022-10-14T07:15:07.973Z,1.20
2022-10-14T07:17:35.995Z,1.37
2022-10-14T07:20:04.202Z,1.77
2022-10-14T07:22:38.995Z,1.70
2022-10-14T07:25:08.553Z,1.40
2022-10-14T07:27:36.560Z,1.70
2022-10-14T07:30:05.937Z,1.77
2022-10-14T07:32:36.877Z,1.63
2022-10-14T07:35:05.292Z,1.70
2022-10-14T07:37:34.664Z,1.50
2022-10-14T07:40:02.687Z,1.60
2022-10-14T07:42:31.973Z,1.50
2022-10-14T07:44:59.983Z,1.83
2022-10-14T07:47:27.984Z,1.93
2022-10-14T07:49:56.003Z,1.70
2022-10-14T07:52:23.959Z,1.53
2022-10-14T07:54:53.317Z,1.40
2022-10-14T07:57:23.436Z,1.70
2022-10-14T07:59:52.982Z,1.40
2022-10-14T08:02:21.397Z,1.60
2022-10-14T08:04:53.209Z,1.70
2022-10-14T08:07:21.368Z,1.50
2022-10-14T08:09:49.703Z,1.60
2022-10-14T08:12:19.282Z,1.47
2022-10-14T08:14:47.551Z,1.60
2022-10-14T08:17:15.525Z,1.80
2022-10-14T08:19:43.713Z,1.27
2022-10-14T08:22:11.713Z,1.17
2022-10-14T08:24:39.664Z,1.70
2022-10-14T08:27:08.029Z,1.40
2022-10-14T08:29:37.403Z,1.37
2022-10-14T08:32:05.923Z,1.70
2022-10-14T08:34:33.961Z,1.50
2022-10-14T08:37:03.208Z,1.87
2022-10-14T08:39:31.219Z,1.43
2022-10-14T08:42:12.606Z,1.50
2022-10-14T08:44:44.948Z,1.30
2022-10-14T08:47:15.582Z,1.30
2022-10-14T08:49:53.268Z,1.40
2022-10-14T08:52:24.625Z,2.03
2022-10-14T08:54:56.980Z,1.87
2022-10-14T08:57:28.025Z,1.80
2022-10-14T08:59:57.421Z,1.40
2022-10-14T09:02:36.301Z,1.50
2022-10-14T09:05:04.987Z,1.43
2022-10-14T09:07:34.611Z,1.30
2022-10-14T09:10:06.496Z,1.70
2022-10-14T09:12:36.152Z,1.20
2022-10-14T09:15:11.144Z,1.60
2022-10-14T09:17:44.868Z,1.60
2022-10-14T09:20:19.479Z,1.77
2022-10-14T09:22:55.510Z,1.87
2022-10-14T09:25:23.509Z,1.27
2022-10-14T09:27:51.599Z,1.50
2022-10-14T09:30:20.996Z,1.40
2022-10-14T09:32:51.514Z,1.40
2022-10-14T09:35:24.383Z,1.57
2022-10-14T09:37:53.126Z,1.40
2022-10-14T09:40:26.702Z,1.67
2022-10-14T09:42:59.293Z,2.00
2022-10-14T09:45:30.970Z,1.60
2022-10-14T09:48:03.965Z,1.53
2022-10-14T09:50:36.508Z,1.50
2022-10-14T09:53:10.720Z,1.30
2022-10-14T09:55:40.863Z,1.47
2022-10-14T09:58:14.968Z,1.70
2022-10-14T10:00:44.478Z,1.40
2022-10-14T10:03:25.886Z,1.37
2022-10-14T10:06:02.704Z,1.70
2022-10-14T10:08:31.063Z,1.70
2022-10-14T10:11:05.496Z,1.30
2022-10-14T10:13:39.530Z,1.33
2022-10-14T10:16:18.649Z,1.40
2022-10-14T10:18:46.605Z,1.37
2022-10-14T10:21:19.976Z,1.17
2022-10-14T10:23:52.962Z,1.40
2022-10-14T10:26:25.845Z,1.60
2022-10-14T10:28:57.059Z,1.30
2022-10-14T10:31:55.749Z,1.57
2022-10-14T10:34:44.127Z,1.33
2022-10-14T10:37:25.167Z,1.23
2022-10-14T10:40:04.951Z,1.10
2022-10-14T10:42:39.831Z,1.03
2022-10-14T10:45:15.995Z,1.20
2022-10-14T10:47:50.535Z,1.13
2022-10-14T10:50:34.109Z,1.37
2022-10-14T10:53:11.470Z,0.93
2022-10-14T10:58:30.909Z,1.33
2022-10-14T11:01:02.848Z,1.20
2022-10-14T11:03:48.885Z,1.17
2022-10-14T11:06:43.404Z,1.10
2022-10-14T11:09:35.147Z,0.73
2022-10-14T11:12:13.557Z,1.10
2022-10-14T11:14:56.548Z,1.30
2022-10-14T11:17:32.039Z,0.93
2022-10-14T11:20:06.388Z,1.07
2022-10-14T11:22:52.244Z,1.10
2022-10-14T11:25:26.955Z,0.90
2022-10-14T11:28:00.820Z,1.00
2022-10-14T11:30:38.147Z,0.93
2022-10-14T11:33:25.070Z,0.90
2022-10-14T11:36:01.401Z,0.90
2022-10-14T11:38:40.916Z,0.87
2022-10-14T11:41:14.346Z,0.90
2022-10-14T11:43:46.055Z,0.80
2022-10-14T11:46:15.515Z,0.87
2022-10-14T11:48:46.394Z,0.90
2022-10-14T11:51:19.710Z,0.80
2022-10-14T11:53:56.900Z,0.83
2022-10-14T11:56:30.588Z,0.70
2022-10-14T11:59:00.971Z,0.87
2022-10-14T12:01:34.174Z,0.90
2022-10-14T12:04:10.939Z,0.70
2022-10-14T12:06:44.626Z,0.70
2022-10-14T12:09:17.866Z,0.83
2022-10-14T12:11:47.827Z,0.80
2022-10-14T12:14:20.366Z,0.60
2022-10-14T12:16:49.600Z,0.70
2022-10-14T12:19:23.151Z,1.00
2022-10-14T12:21:55.411Z,0.93
2022-10-14T12:24:30.642Z,0.70
2022-10-14T12:26:59.781Z,0.77
2022-10-14T12:29:31.294Z,0.80
2022-10-14T12:32:20.755Z,0.70
2022-10-14T12:34:50.082Z,0.60
2022-10-14T12:37:54.291Z,0.70
2022-10-14T12:40:28.585Z,0.67
2022-10-14T12:42:59.839Z,0.87
2022-10-14T12:45:29.642Z,0.70
2022-10-14T12:48:07.527Z,0.60
2022-10-14T12:50:39.316Z,1.00
2022-10-14T12:53:15.601Z,0.70
2022-10-14T12:55:49.491Z,0.60
2022-10-14T12:58:25.609Z,0.67
2022-10-14T13:00:59.616Z,0.67
2022-10-14T13:03:29.234Z,0.70
2022-10-14T13:06:29.771Z,0.67
2022-10-14T13:09:40.621Z,0.70
2022-10-14T13:12:42.052Z,0.70
2022-10-14T13:15:48.742Z,0.70
2022-10-14T13:18:36.333Z,0.70
2022-10-14T13:21:05.581Z,1.17
2022-10-14T13:23:42.500Z,0.63
2022-10-14T13:26:30.084Z,0.80
2022-10-14T13:29:12.974Z,0.73
2022-10-14T13:31:47.289Z,0.80
2022-10-14T13:34:22.782Z,0.80
2022-10-14T13:37:03.073Z,0.70
2022-10-14T13:39:33.663Z,0.87
2022-10-14T13:42:02.413Z,0.87
2022-10-14T13:44:34.110Z,0.60
2022-10-14T13:47:02.598Z,0.70
2022-10-14T13:49:35.574Z,1.10
2022-10-14T13:52:05.572Z,0.93
2022-10-14T13:54:33.801Z,0.90
2022-10-14T13:57:35.047Z,0.70
2022-10-14T14:00:39.172Z,0.97
2022-10-14T14:02:44.392Z,0.77
2022-10-14T14:05:21.073Z,0.80
2022-10-14T14:10:46.837Z,1.00
2022-10-14T14:13:26.113Z,0.80
2022-10-14T14:15:56.445Z,0.87
2022-10-14T14:18:38.174Z,1.00
2022-10-14T14:21:18.096Z,0.83
2022-10-14T14:23:52.796Z,0.80
2022-10-14T14:26:21.547Z,1.10
2022-10-14T14:28:50.015Z,0.73
2022-10-14T14:31:21.073Z,0.80
2022-10-14T14:33:49.141Z,0.90
2022-10-14T14:36:27.475Z,1.00
2022-10-14T14:39:03.000Z,0.80
2022-10-14T14:41:33.091Z,0.70
2022-10-14T14:44:25.612Z,0.80
2022-10-14T14:46:58.281Z,0.73
2022-10-14T14:49:28.630Z,0.80
2022-10-14T14:51:59.074Z,0.80
2022-10-14T14:54:28.787Z,0.77
2022-10-14T14:57:04.186Z,1.03
2022-10-14T14:59:35.465Z,0.80
2022-10-14T15:02:13.447Z,0.80
2022-10-14T15:04:43.434Z,0.73
2022-10-14T15:07:21.002Z,1.00
2022-10-14T15:09:51.553Z,0.80
2022-10-14T15:12:22.209Z,1.10
2022-10-14T15:14:51.617Z,0.80
2022-10-14T15:17:29.258Z,0.70
2022-10-14T15:19:59.946Z,0.80
2022-10-14T15:22:35.722Z,0.70
2022-10-14T15:25:09.592Z,0.70
2022-10-14T15:27:53.589Z,0.70
2022-10-14T15:30:31.799Z,0.73
2022-10-14T15:33:02.809Z,0.70
2022-10-14T15:35:31.203Z,0.80
2022-10-14T15:37:59.234Z,0.70
2022-10-14T15:40:31.428Z,0.70
2022-10-14T15:43:00.030Z,0.77
2022-10-14T15:45:28.143Z,0.70
2022-10-14T15:47:58.802Z,1.00
2022-10-14T15:50:28.413Z,0.80
2022-10-14T15:52:57.155Z,0.70
2022-10-14T15:55:27.019Z,0.77
2022-10-14T15:57:55.124Z,0.80
2022-10-14T16:00:24.715Z,0.80
2022-10-14T16:02:55.801Z,0.80
2022-10-14T16:05:23.936Z,0.80
2022-10-14T16:07:53.322Z,0.73
2022-10-14T16:10:23.150Z,0.70
2022-10-14T16:12:51.787Z,0.70
2022-10-14T16:15:32.703Z,1.00
2022-10-14T16:18:01.815Z,1.07
2022-10-14T16:20:30.773Z,1.07
2022-10-14T16:23:04.280Z,1.03
2022-10-14T16:25:38.739Z,1.67
2022-10-14T16:28:10.046Z,0.97
2022-10-14T16:30:40.181Z,0.90
2022-10-14T16:33:08.692Z,0.80
2022-10-14T16:35:36.720Z,0.90
2022-10-14T16:38:06.126Z,0.93
2022-10-14T16:40:36.766Z,0.80
2022-10-14T16:43:07.054Z,0.90
2022-10-14T16:45:35.068Z,0.70
2022-10-14T16:48:03.138Z,1.00
2022-10-14T16:50:31.137Z,0.87
2022-10-14T16:53:25.003Z,1.17
2022-10-14T16:55:58.777Z,0.90
2022-10-14T16:58:27.958Z,0.90
2022-10-14T17:00:56.054Z,0.70
2022-10-14T17:03:24.087Z,0.80
2022-10-14T17:05:58.389Z,0.90
2022-10-14T17:08:26.346Z,0.70
2022-10-14T17:10:59.590Z,0.80
2022-10-14T17:13:27.793Z,0.80
2022-10-14T17:15:59.963Z,0.70
2022-10-14T17:18:33.681Z,1.97
2022-10-14T17:21:02.931Z,1.20
2022-10-14T17:23:31.997Z,0.90
2022-10-14T17:26:01.653Z,1.00
2022-10-14T17:28:30.194Z,1.40
2022-10-14T17:30:58.801Z,1.00
2022-10-14T17:33:26.787Z,1.10
2022-10-14T17:35:58.308Z,1.10
2022-10-14T17:38:26.474Z,0.90
2022-10-14T17:40:54.576Z,0.90
2022-10-14T17:43:24.604Z,1.20
2022-10-14T17:45:52.620Z,1.20
2022-10-14T17:48:21.826Z,1.20
2022-10-14T17:50:49.836Z,1.00
2022-10-14T17:53:17.902Z,0.90
2022-10-14T17:55:45.938Z,1.00
2022-10-14T17:58:14.052Z,0.90
2022-10-14T18:00:43.489Z,1.00
2022-10-14T18:03:11.631Z,1.03
2022-10-14T18:05:43.975Z,1.23
2022-10-14T18:08:14.664Z,1.40
2022-10-14T18:10:43.069Z,1.07
2022-10-14T18:13:11.212Z,1.30
2022-10-14T18:15:39.299Z,1.67
2022-10-14T18:18:09.319Z,0.93
2022-10-14T18:20:37.412Z,1.33
2022-10-14T18:23:07.561Z,1.17
2022-10-14T18:25:36.973Z,1.97
2022-10-14T18:28:05.284Z,1.80
2022-10-14T18:30:33.306Z,1.60
2022-10-14T18:33:01.292Z,1.20
2022-10-14T18:35:30.675Z,1.20
2022-10-14T18:37:58.674Z,1.20
2022-10-14T18:40:26.718Z,1.17
2022-10-14T18:42:58.100Z,1.20
2022-10-14T18:45:26.121Z,1.10
2022-10-14T18:47:54.177Z,1.10
2022-10-14T18:50:22.192Z,1.10
2022-10-14T18:52:51.648Z,1.30
2022-10-14T18:55:19.700Z,1.63
2022-10-14T18:57:47.716Z,1.30
2022-10-14T19:00:16.497Z,1.10
2022-10-14T19:02:44.584Z,1.10
2022-10-14T19:05:12.776Z,1.30
2022-10-14T19:07:40.833Z,1.20
2022-10-14T19:10:10.986Z,1.40
2022-10-14T19:12:45.107Z,1.30
2022-10-14T19:15:13.230Z,1.40
2022-10-14T19:17:42.844Z,1.33
2022-10-14T19:20:12.245Z,1.40
2022-10-14T19:22:44.773Z,1.40
2022-10-14T19:25:14.215Z,1.23
2022-10-14T19:27:42.224Z,1.13
2022-10-14T19:30:11.481Z,1.10
2022-10-14T19:32:39.519Z,1.17
2022-10-14T19:35:07.620Z,1.20
2022-10-14T19:37:35.678Z,1.37
2022-10-14T19:40:03.778Z,1.17
2022-10-14T19:42:33.238Z,1.10
2022-10-14T19:45:01.392Z,1.23
2022-10-14T19:47:29.432Z,1.00
2022-10-14T19:49:57.569Z,1.17
2022-10-14T19:52:25.646Z,1.10
2022-10-14T19:54:53.676Z,1.10
2022-10-14T19:57:23.214Z,1.30
2022-10-14T19:59:52.763Z,3.60
2022-10-14T20:02:20.749Z,2.80
2022-10-14T20:05:17.087Z,1.83
2022-10-14T20:07:45.134Z,1.60
2022-10-14T20:10:13.605Z,1.37
2022-10-14T20:12:41.593Z,1.47
2022-10-14T20:15:11.768Z,1.50
2022-10-14T20:17:39.795Z,1.13
2022-10-14T20:20:09.044Z,1.20
2022-10-14T20:22:37.106Z,1.10
2022-10-14T20:25:05.708Z,1.00
2022-10-14T20:27:33.967Z,0.90
2022-10-14T20:30:02.065Z,1.30
2022-10-14T20:32:31.419Z,1.10
2022-10-14T20:34:59.529Z,1.13
2022-10-14T20:37:28.262Z,1.10
2022-10-14T20:39:56.483Z,0.93
2022-10-14T20:42:24.660Z,0.93
2022-10-14T20:44:52.655Z,1.23
2022-10-14T20:47:21.053Z,1.10
2022-10-14T20:49:50.617Z,1.20
2022-10-14T20:52:18.593Z,1.03
2022-10-14T20:54:46.595Z,1.17
2022-10-14T20:57:14.630Z,1.40
2022-10-14T20:59:42.750Z,0.90
2022-10-14T21:02:16.710Z,0.83
2022-10-14T21:04:47.794Z,1.23
2022-10-14T21:07:18.007Z,1.17
2022-10-14T21:09:46.066Z,0.90
2022-10-14T21:12:14.667Z,1.10
2022-10-14T21:14:42.686Z,1.40
2022-10-14T21:17:10.720Z,1.10
2022-10-14T21:19:38.804Z,0.90
2022-10-14T21:22:06.835Z,1.00
2022-10-14T21:24:36.357Z,0.90
2022-10-14T21:27:04.412Z,1.10
2022-10-14T21:29:32.407Z,1.17
2022-10-14T21:32:02.208Z,1.10
2022-10-14T21:34:30.672Z,1.40
2022-10-14T21:36:59.021Z,1.00
2022-10-14T21:39:27.051Z,1.10
2022-10-14T21:41:56.423Z,1.10
2022-10-14T21:44:24.544Z,0.90
2022-10-14T21:46:52.518Z,1.40
2022-10-14T21:49:20.539Z,1.07
2022-10-14T21:51:48.604Z,1.20
2022-10-14T21:54:17.042Z,1.30
2022-10-14T21:56:45.093Z,1.33
2022-10-14T21:59:14.516Z,1.43
2022-10-14T22:01:42.568Z,1.70
2022-10-14T22:04:11.236Z,1.47
2022-10-14T22:06:39.586Z,1.40
2022-10-14T22:09:08.591Z,1.50
2022-10-14T22:11:38.671Z,1.70
2022-10-14T22:14:08.915Z,1.53
2022-10-14T22:16:39.168Z,1.23
2022-10-14T22:19:08.014Z,1.70
2022-10-14T22:21:37.595Z,1.37
2022-10-14T22:26:40.403Z,1.30
2022-10-14T22:29:11.577Z,1.10
2022-10-14T22:31:40.980Z,1.40
2022-10-14T22:34:11.193Z,1.10
2022-10-14T22:36:39.320Z,1.00
2022-10-14T22:39:09.117Z,0.97
2022-10-14T22:41:37.229Z,1.07
2022-10-14T22:44:06.514Z,1.30
2022-10-14T22:46:35.879Z,1.20
2022-10-14T22:49:05.359Z,0.90
2022-10-14T22:51:35.102Z,1.10
2022-10-14T22:54:03.203Z,1.30
2022-10-14T22:56:32.036Z,0.97
2022-10-14T22:59:01.563Z,1.03
2022-10-14T23:01:29.909Z,1.10
2022-10-14T23:03:59.240Z,1.10
2022-10-14T23:06:29.401Z,1.10
2022-10-14T23:08:57.688Z,1.03
2022-10-14T23:11:26.434Z,1.10
2022-10-14T23:13:54.816Z,0.90
2022-10-14T23:16:24.580Z,0.70
2022-10-14T23:18:53.515Z,1.00
2022-10-14T23:21:23.561Z,0.93
2022-10-14T23:23:53.541Z,1.00
2022-10-14T23:26:22.997Z,1.27
2022-10-14T23:28:52.385Z,0.97
2022-10-14T23:31:22.311Z,1.00
2022-10-14T23:33:52.217Z,0.80
2022-10-14T23:36:21.273Z,1.00
2022-10-14T23:38:49.511Z,1.00
2022-10-14T23:41:19.145Z,1.13
2022-10-14T23:43:47.116Z,0.97
2022-10-14T23:46:15.515Z,0.90
2022-10-14T23:48:47.967Z,0.87
2022-10-14T23:51:48.653Z,0.97
2022-10-14T23:54:16.888Z,0.90
2022-10-14T23:56:46.264Z,0.80
2022-10-14T23:59:14.453Z,0.87
